Time;durP1;ratioP1;P1;durP2;ratioP2;P2;SDS_P1;SDS_P2;PMS_P1;PMS_P2;Temp;Humidity;BMP_temperature;BMP_pressure;BME280_temperature;BME280_humidity;BME280_pressure;Samples;Min_cycle;Max_cycle;Signal;HPM_P1;HPM_P2
2022/06/01 00:00:29;;;;;;;0.20;0.10;;;;;;;;;;4959042;28;20070;-87
2022/06/01 00:02:55;;;;;;;0.20;0.15;;;;;;;;;;4959781;28;20085;-86
2022/06/01 00:05:21;;;;;;;0.20;0.10;;;;;;;;;;4962468;28;20038;-87
2022/06/01 00:07:48;;;;;;;0.20;0.10;;;;;;;;;;4960557;28;20439;-87
2022/06/01 00:10:14;;;;;;;0.20;0.17;;;;;;;;;;4976705;28;20160;-87
2022/06/01 00:12:40;;;;;;;0.20;0.03;;;;;;;;;;4964332;28;20207;-87
2022/06/01 00:15:07;;;;;;;0.20;0.10;;;;;;;;;;4973512;28;20030;-86
2022/06/01 00:17:33;;;;;;;0.20;0.10;;;;;;;;;;4959846;28;20499;-87
2022/06/01 00:20:00;;;;;;;0.20;0.10;;;;;;;;;;4961936;28;20452;-86
2022/06/01 00:22:26;;;;;;;0.20;0.10;;;;;;;;;;4972755;28;20053;-86
2022/06/01 00:24:52;;;;;;;0.20;0.10;;;;;;;;;;4946101;28;20073;-87
2022/06/01 00:27:18;;;;;;;0.20;0.10;;;;;;;;;;4976933;28;20041;-87
2022/06/01 00:29:45;;;;;;;0.73;0.52;;;;;;;;;;4976109;28;20169;-87
2022/06/01 00:32:12;;;;;;;0.20;0.10;;;;;;;;;;4966555;28;20494;-87
2022/06/01 00:34:39;;;;;;;0.20;0.10;;;;;;;;;;4961779;28;20042;-87
2022/06/01 00:37:06;;;;;;;0.20;0.10;;;;;;;;;;4976716;28;20041;-88
2022/06/01 00:39:32;;;;;;;0.20;0.10;;;;;;;;;;4956823;28;20038;-87
2022/06/01 00:42:14;;;;;;;0.20;0.10;;;;;;;;;;4975658;28;20202;-87
2022/06/01 00:44:40;;;;;;;0.20;0.10;;;;;;;;;;4960736;28;20045;-88
2022/06/01 00:47:08;;;;;;;0.20;0.10;;;;;;;;;;4960534;28;20070;-87
2022/06/01 00:49:34;;;;;;;0.20;0.10;;;;;;;;;;4957353;28;20473;-87
2022/06/01 00:52:00;;;;;;;0.20;0.10;;;;;;;;;;4980648;28;20057;-87
2022/06/01 00:54:27;;;;;;;0.38;0.38;;;;;;;;;;4977165;28;20069;-86
2022/06/01 00:56:56;;;;;;;0.20;0.10;;;;;;;;;;4964797;28;20042;-86
2022/06/01 00:59:23;;;;;;;0.20;0.10;;;;;;;;;;4955300;28;20054;-87
2022/06/01 01:01:53;;;;;;;0.20;0.10;;;;;;;;;;4957958;28;20660;-86
2022/06/01 01:04:19;;;;;;;0.20;0.20;;;;;;;;;;4960276;28;20048;-87
2022/06/01 01:06:45;;;;;;;0.20;0.10;;;;;;;;;;4958571;28;20034;-87
2022/06/01 01:09:12;;;;;;;0.20;0.10;;;;;;;;;;4956753;28;22013;-87
2022/06/01 01:11:47;;;;;;;0.20;0.10;;;;;;;;;;4944054;28;20347;-87
2022/06/01 01:14:14;;;;;;;0.20;0.10;;;;;;;;;;4977729;28;20517;-88
2022/06/01 01:16:41;;;;;;;0.20;0.10;;;;;;;;;;4974436;28;20074;-87
2022/06/01 01:19:13;;;;;;;0.20;0.00;;;;;;;;;;4959348;28;20126;-87
2022/06/01 01:21:50;;;;;;;0.20;0.10;;;;;;;;;;4976413;28;20043;-88
2022/06/01 01:24:16;;;;;;;0.20;0.10;;;;;;;;;;4957880;28;20045;-87
2022/06/01 01:26:47;;;;;;;0.20;0.13;;;;;;;;;;4958270;28;20037;-87
2022/06/01 01:29:14;;;;;;;0.20;0.10;;;;;;;;;;4975552;28;20042;-87
2022/06/01 01:31:40;;;;;;;0.20;0.10;;;;;;;;;;4961808;28;20038;-87
2022/06/01 01:34:07;;;;;;;0.20;0.10;;;;;;;;;;4970701;28;20440;-87
2022/06/01 01:36:42;;;;;;;0.20;0.00;;;;;;;;;;4987013;28;20035;-88
2022/06/01 01:39:11;;;;;;;0.20;0.10;;;;;;;;;;4967694;28;20113;-87
2022/06/01 01:41:37;;;;;;;0.38;0.15;;;;;;;;;;4970425;28;20050;-87
2022/06/01 01:44:09;;;;;;;0.20;0.10;;;;;;;;;;4962961;28;20463;-88
2022/06/01 01:46:36;;;;;;;0.20;0.20;;;;;;;;;;4957570;28;20499;-87
2022/06/01 01:49:02;;;;;;;0.20;0.10;;;;;;;;;;4958973;28;20046;-88
2022/06/01 01:51:29;;;;;;;0.20;0.10;;;;;;;;;;4943416;28;20039;-87
2022/06/01 01:53:56;;;;;;;0.20;0.10;;;;;;;;;;4959182;28;20034;-88
2022/06/01 01:56:45;;;;;;;0.20;0.10;;;;;;;;;;4975471;28;20046;-88
2022/06/01 01:59:31;;;;;;;0.20;0.10;;;;;;;;;;4959298;28;20403;-87
2022/06/01 02:02:20;;;;;;;0.20;0.10;;;;;;;;;;4977037;28;20108;-87
2022/06/01 02:07:37;;;;;;;0.20;0.10;;;;;;;;;;4985796;28;20058;-87
2022/06/01 02:12:49;;;;;;;0.20;0.10;;;;;;;;;;4968437;28;20074;-87
2022/06/01 02:15:28;;;;;;;0.20;0.10;;;;;;;;;;4972649;28;20084;-87
2022/06/01 02:17:58;;;;;;;0.20;0.10;;;;;;;;;;4960073;28;20034;-87
2022/06/01 02:20:25;;;;;;;0.20;0.10;;;;;;;;;;4974880;28;20038;-86
2022/06/01 02:22:51;;;;;;;0.20;0.10;;;;;;;;;;4958500;28;20133;-87
2022/06/01 02:25:18;;;;;;;0.20;0.10;;;;;;;;;;4958029;28;20145;-87
2022/06/01 02:27:45;;;;;;;0.20;0.10;;;;;;;;;;4973969;28;20078;-87
2022/06/01 02:30:15;;;;;;;0.20;0.10;;;;;;;;;;4962034;28;20085;-86
2022/06/01 02:32:41;;;;;;;0.20;0.10;;;;;;;;;;4959583;28;20269;-86
2022/06/01 02:35:09;;;;;;;0.22;0.13;;;;;;;;;;4960506;28;20134;-87
2022/06/01 02:37:40;;;;;;;0.20;0.10;;;;;;;;;;4975407;28;20050;-87
2022/06/01 02:40:09;;;;;;;0.20;0.10;;;;;;;;;;4970096;28;20327;-88
2022/06/01 02:42:43;;;;;;;0.20;0.10;;;;;;;;;;4959630;28;20061;-88
2022/06/01 02:45:09;;;;;;;0.20;0.10;;;;;;;;;;4970874;28;20049;-88
2022/06/01 02:47:39;;;;;;;0.20;0.10;;;;;;;;;;4954132;28;20049;-87
2022/06/01 02:50:07;;;;;;;0.20;0.10;;;;;;;;;;4973221;28;20043;-88
2022/06/01 02:52:33;;;;;;;0.20;0.10;;;;;;;;;;4981815;28;20264;-86
2022/06/01 02:55:00;;;;;;;0.20;0.00;;;;;;;;;;4962134;28;20035;-88
2022/06/01 02:57:26;;;;;;;0.20;0.10;;;;;;;;;;4957971;28;20042;-87
2022/06/01 02:59:52;;;;;;;0.20;0.10;;;;;;;;;;4946487;28;20043;-87
2022/06/01 03:02:19;;;;;;;0.20;0.10;;;;;;;;;;4960474;28;20514;-87
2022/06/01 03:04:45;;;;;;;0.20;0.10;;;;;;;;;;4971335;28;20130;-87
2022/06/01 03:07:12;;;;;;;0.20;0.10;;;;;;;;;;4959112;28;20054;-87
2022/06/01 03:09:38;;;;;;;0.20;0.10;;;;;;;;;;4962510;28;20363;-87
2022/06/01 03:12:05;;;;;;;0.20;0.10;;;;;;;;;;4983187;28;20038;-87
2022/06/01 03:14:31;;;;;;;0.20;0.10;;;;;;;;;;4959358;28;20045;-87
2022/06/01 03:16:58;;;;;;;1.23;0.40;;;;;;;;;;4958011;28;20046;-87
2022/06/01 03:19:24;;;;;;;0.20;0.10;;;;;;;;;;4972233;28;20579;-87
2022/06/01 03:21:50;;;;;;;0.20;0.10;;;;;;;;;;4960644;28;20038;-88
2022/06/01 03:24:17;;;;;;;0.20;0.03;;;;;;;;;;4943679;28;20810;-88
2022/06/01 03:26:43;;;;;;;0.20;0.10;;;;;;;;;;4944815;28;20107;-86
2022/06/01 03:29:10;;;;;;;0.30;0.30;;;;;;;;;;4961633;28;20042;-87
2022/06/01 03:31:36;;;;;;;0.25;0.20;;;;;;;;;;4956131;28;20046;-87
2022/06/01 03:34:03;;;;;;;0.20;0.05;;;;;;;;;;4961543;28;20040;-87
2022/06/01 03:36:29;;;;;;;0.30;0.20;;;;;;;;;;4959009;28;20097;-88
2022/06/01 03:38:55;;;;;;;0.20;0.10;;;;;;;;;;4970273;28;20554;-87
2022/06/01 03:41:22;;;;;;;0.20;0.10;;;;;;;;;;4972833;28;20101;-87
2022/06/01 03:46:34;;;;;;;0.20;0.10;;;;;;;;;;4972879;28;20061;-87
2022/06/01 03:49:00;;;;;;;0.20;0.17;;;;;;;;;;4973916;28;20906;-88
2022/06/01 03:51:26;;;;;;;0.20;0.10;;;;;;;;;;4945643;28;20495;-87
2022/06/01 03:53:53;;;;;;;0.20;0.10;;;;;;;;;;4945382;28;20523;-88
2022/06/01 03:56:22;;;;;;;0.20;0.10;;;;;;;;;;4964020;28;20050;-87
2022/06/01 03:58:49;;;;;;;0.20;0.13;;;;;;;;;;4944317;28;20445;-87
2022/06/01 04:01:15;;;;;;;0.20;0.20;;;;;;;;;;4957582;28;20239;-88
2022/06/01 04:03:41;;;;;;;0.20;0.15;;;;;;;;;;4957722;28;20049;-87
2022/06/01 04:06:07;;;;;;;0.20;0.10;;;;;;;;;;4955752;28;20038;-87
2022/06/01 04:08:33;;;;;;;0.20;0.10;;;;;;;;;;4961007;28;20050;-88
2022/06/01 04:10:59;;;;;;;0.30;0.30;;;;;;;;;;4945378;28;20585;-87
2022/06/01 04:13:27;;;;;;;0.20;0.10;;;;;;;;;;4977773;28;20399;-87
2022/06/01 04:15:53;;;;;;;0.77;0.25;;;;;;;;;;4964693;28;20130;-86
2022/06/01 04:18:22;;;;;;;0.20;0.10;;;;;;;;;;4963365;28;20042;-89
2022/06/01 04:20:51;;;;;;;0.20;0.10;;;;;;;;;;4975125;28;20065;-88
2022/06/01 04:23:19;;;;;;;0.45;0.25;;;;;;;;;;4963337;28;20129;-88
2022/06/01 04:25:45;;;;;;;0.43;0.43;;;;;;;;;;4962347;28;20050;-88
2022/06/01 04:28:12;;;;;;;0.20;0.00;;;;;;;;;;4941602;28;20901;-88
2022/06/01 04:30:38;;;;;;;0.20;0.10;;;;;;;;;;4958126;28;20039;-87
2022/06/01 04:33:05;;;;;;;0.20;0.10;;;;;;;;;;4962548;28;20534;-89
2022/06/01 04:35:31;;;;;;;0.20;0.10;;;;;;;;;;4942939;28;20046;-87
2022/06/01 04:38:12;;;;;;;0.20;0.10;;;;;;;;;;4976534;28;20117;-89
2022/06/01 04:40:39;;;;;;;0.20;0.05;;;;;;;;;;4959390;28;20501;-87
2022/06/01 04:43:05;;;;;;;0.20;0.10;;;;;;;;;;4954832;28;21523;-87
2022/06/01 04:45:31;;;;;;;0.20;0.03;;;;;;;;;;4971155;28;20034;-87
2022/06/01 04:47:57;;;;;;;0.20;0.10;;;;;;;;;;4956988;28;20499;-88
2022/06/01 04:50:23;;;;;;;0.20;0.20;;;;;;;;;;4962543;28;20125;-88
2022/06/01 04:52:49;;;;;;;0.20;0.10;;;;;;;;;;4979521;28;20030;-88
2022/06/01 04:55:15;;;;;;;0.75;0.75;;;;;;;;;;4957061;28;20039;-89
2022/06/01 04:57:42;;;;;;;0.20;0.20;;;;;;;;;;4977314;28;20561;-88
2022/06/01 05:00:08;;;;;;;0.20;0.10;;;;;;;;;;4958730;28;20038;-88
2022/06/01 05:02:35;;;;;;;0.35;0.35;;;;;;;;;;4971005;28;20114;-88
2022/06/01 05:05:01;;;;;;;0.20;0.10;;;;;;;;;;4956015;28;20467;-88
2022/06/01 05:07:27;;;;;;;0.20;0.10;;;;;;;;;;4966245;28;21329;-88
2022/06/01 05:09:53;;;;;;;0.20;0.10;;;;;;;;;;4942021;28;20523;-89
2022/06/01 05:12:19;;;;;;;0.20;0.10;;;;;;;;;;4970821;28;20045;-88
2022/06/01 05:14:46;;;;;;;0.20;0.10;;;;;;;;;;4955248;28;20034;-89
2022/06/01 05:17:12;;;;;;;0.20;0.10;;;;;;;;;;4969345;28;20324;-88
2022/06/01 05:19:38;;;;;;;0.20;0.10;;;;;;;;;;4953972;28;20044;-88
2022/06/01 05:22:04;;;;;;;0.20;0.10;;;;;;;;;;4952226;28;20438;-87
2022/06/01 05:24:30;;;;;;;0.20;0.10;;;;;;;;;;4966495;28;20194;-88
2022/06/01 05:26:56;;;;;;;0.20;0.10;;;;;;;;;;4967496;28;20065;-89
2022/06/01 05:29:22;;;;;;;0.20;0.10;;;;;;;;;;4971618;28;20057;-88
2022/06/01 05:31:49;;;;;;;0.20;0.20;;;;;;;;;;4954898;28;20108;-90
2022/06/01 05:34:15;;;;;;;0.20;0.10;;;;;;;;;;4967582;28;20046;-89
2022/06/01 05:36:41;;;;;;;0.20;0.10;;;;;;;;;;4953945;28;20443;-89
2022/06/01 05:39:07;;;;;;;0.20;0.10;;;;;;;;;;4962921;28;20053;-89
2022/06/01 05:41:35;;;;;;;0.20;0.10;;;;;;;;;;4958592;28;20050;-89
2022/06/01 05:44:01;;;;;;;0.20;0.10;;;;;;;;;;4962106;28;20057;-88
2022/06/01 05:46:27;;;;;;;0.20;0.10;;;;;;;;;;4972661;28;20294;-88
2022/06/01 05:48:53;;;;;;;0.20;0.10;;;;;;;;;;4945987;28;20034;-88
2022/06/01 05:51:20;;;;;;;0.57;0.20;;;;;;;;;;4967746;28;20403;-88
2022/06/01 05:53:46;;;;;;;0.40;0.40;;;;;;;;;;4976928;28;20077;-90
2022/06/01 05:56:12;;;;;;;0.20;0.10;;;;;;;;;;4954004;28;20034;-88
2022/06/01 05:58:39;;;;;;;0.30;0.28;;;;;;;;;;4961194;28;20046;-89
2022/06/01 06:01:06;;;;;;;0.20;0.10;;;;;;;;;;4961438;28;20042;-88
2022/06/01 06:03:33;;;;;;;0.20;0.10;;;;;;;;;;4964803;28;20046;-88
2022/06/01 06:06:12;;;;;;;0.20;0.10;;;;;;;;;;4954631;28;20149;-88
2022/06/01 06:08:39;;;;;;;0.20;0.10;;;;;;;;;;4945834;28;20105;-88
2022/06/01 06:11:06;;;;;;;0.20;0.20;;;;;;;;;;4976350;28;20038;-88
2022/06/01 06:13:35;;;;;;;0.30;0.30;;;;;;;;;;4970662;28;20057;-88
2022/06/01 06:16:02;;;;;;;0.20;0.10;;;;;;;;;;4944482;28;20145;-89
2022/06/01 06:18:28;;;;;;;0.20;0.10;;;;;;;;;;4958440;28;20042;-89
2022/06/01 06:20:54;;;;;;;0.20;0.13;;;;;;;;;;4946470;28;20039;-88
2022/06/01 06:23:21;;;;;;;0.20;0.20;;;;;;;;;;4972647;28;20062;-89
2022/06/01 06:25:47;;;;;;;0.20;0.15;;;;;;;;;;4985403;28;20185;-88
2022/06/01 06:28:13;;;;;;;0.20;0.10;;;;;;;;;;4954329;28;20039;-89
2022/06/01 06:30:40;;;;;;;0.40;0.17;;;;;;;;;;4999293;28;20038;-88
2022/06/01 06:33:06;;;;;;;0.20;0.10;;;;;;;;;;4967175;28;20026;-88
2022/06/01 06:35:57;;;;;;;2.72;0.43;;;;;;;;;;4971845;28;20046;-88
2022/06/01 06:38:26;;;;;;;0.20;0.20;;;;;;;;;;4970193;28;20039;-88
2022/06/01 06:40:54;;;;;;;0.20;0.10;;;;;;;;;;4971985;28;20048;-87
2022/06/01 06:43:21;;;;;;;0.90;0.90;;;;;;;;;;4978925;28;20053;-87
2022/06/01 06:46:04;;;;;;;0.20;0.10;;;;;;;;;;4979507;28;20500;-90
2022/06/01 06:48:30;;;;;;;;;;;;;;;;;;4966855;28;20035;-87
2022/06/01 06:50:58;;;;;;;0.20;0.10;;;;;;;;;;4989248;28;19921;-88
2022/06/01 06:53:25;;;;;;;0.20;0.10;;;;;;;;;;4960329;28;20035;-88
2022/06/01 06:55:51;;;;;;;0.20;0.10;;;;;;;;;;4978927;28;20757;-88
2022/06/01 06:58:17;;;;;;;0.20;0.10;;;;;;;;;;4966550;28;20064;-87
2022/06/01 07:00:44;;;;;;;0.20;0.10;;;;;;;;;;4983909;28;22238;-88
2022/06/01 07:03:10;;;;;;;0.55;0.43;;;;;;;;;;4976706;28;20084;-88
2022/06/01 07:08:21;;;;;;;0.45;0.45;;;;;;;;;;4994340;28;20050;-89
2022/06/01 07:10:48;;;;;;;0.35;0.30;;;;;;;;;;4968396;28;20062;-89
2022/06/01 07:13:14;;;;;;;0.20;0.10;;;;;;;;;;4980586;28;20547;-88
2022/06/01 07:15:41;;;;;;;0.20;0.10;;;;;;;;;;4968749;28;20089;-88
2022/06/01 07:18:07;;;;;;;0.20;0.10;;;;;;;;;;4978767;28;20040;-87
2022/06/01 07:20:33;;;;;;;0.20;0.10;;;;;;;;;;4984440;28;20030;-88
2022/06/01 07:22:59;;;;;;;0.20;0.10;;;;;;;;;;4977216;28;20038;-87
2022/06/01 07:25:26;;;;;;;0.20;0.10;;;;;;;;;;4968072;28;20696;-89
2022/06/01 07:27:52;;;;;;;0.38;0.30;;;;;;;;;;4977123;28;20125;-88
2022/06/01 07:30:18;;;;;;;0.20;0.10;;;;;;;;;;4979752;28;20510;-87
2022/06/01 07:32:48;;;;;;;0.20;0.10;;;;;;;;;;4961790;28;20042;-87
2022/06/01 07:35:18;;;;;;;0.20;0.10;;;;;;;;;;4979496;28;20100;-87
2022/06/01 07:43:16;;;;;;;0.40;0.20;;;;;;;;;;4984274;28;20038;-89
2022/06/01 07:45:47;;;;;;;0.20;0.17;;;;;;;;;;4977393;28;20087;-88
2022/06/01 07:48:14;;;;;;;0.20;0.10;;;;;;;;;;4985198;28;20065;-86
2022/06/01 07:50:41;;;;;;;0.20;0.10;;;;;;;;;;4979186;28;20038;-87
2022/06/01 07:53:08;;;;;;;0.30;0.30;;;;;;;;;;4967599;28;20042;-88
2022/06/01 07:55:35;;;;;;;0.20;0.10;;;;;;;;;;4974877;28;20049;-88
2022/06/01 07:58:01;;;;;;;0.20;0.10;;;;;;;;;;4975155;28;20098;-88
2022/06/01 08:00:28;;;;;;;0.20;0.10;;;;;;;;;;4976353;28;20042;-88
2022/06/01 08:02:55;;;;;;;0.20;0.20;;;;;;;;;;4967642;28;20579;-90
2022/06/01 08:05:22;;;;;;;0.25;0.20;;;;;;;;;;4968548;28;20035;-88
2022/06/01 08:07:48;;;;;;;0.20;0.10;;;;;;;;;;4967119;28;20476;-86
2022/06/01 08:10:15;;;;;;;0.30;0.30;;;;;;;;;;4968795;28;20590;-89
2022/06/01 08:15:44;;;;;;;0.20;0.10;;;12.70;99.90;;;;;;4970818;28;20039;-88
2022/06/01 08:18:22;;;;;;;;;;;;;;;;;;;;;
2022/06/01 08:20:49;;;;;;;0.20;0.10;;;;;;;;;;4980373;28;20435;-88
2022/06/01 08:23:21;;;;;;;0.20;0.10;;;;;;;;;;4979653;28;20043;-91
2022/06/01 08:25:47;;;;;;;0.20;0.10;;;;;;;;;;4968821;28;20410;-90
2022/06/01 08:28:14;;;;;;;0.20;0.10;;;;;;;;;;4969382;28;20069;-92
2022/06/01 08:30:40;;;;;;;0.20;0.10;;;;;;;;;;4975619;28;20161;-92
2022/06/01 08:33:06;;;;;;;0.20;0.10;;;;;;;;;;4987608;28;20596;-93
2022/06/01 08:35:34;;;;;;;0.20;0.10;;;;;;;;;;4971467;28;20459;-92
2022/06/01 08:38:01;;;;;;;0.20;0.10;;;;;;;;;;4969700;28;20084;-94
2022/06/01 08:40:29;;;;;;;0.20;0.10;;;;;;;;;;4972953;28;20053;-91
2022/06/01 08:43:04;;;;;;;0.20;0.10;;;;;;;;;;4982077;28;20065;-93
2022/06/01 08:45:30;;;;;;;0.20;0.10;;;;;;;;;;4983957;28;20034;-93
2022/06/01 10:08:30;;;;;;;0.30;0.30;;;;;;;;;;4972717;28;20037;-89
2022/06/01 10:10:59;;;;;;;0.20;0.10;;;;;;;;;;4971129;28;20522;-89
2022/06/01 10:13:31;;;;;;;0.20;0.00;;;;;;;;;;4988644;28;20111;-89
2022/06/01 10:15:58;;;;;;;0.20;0.10;;;;;;;;;;4986843;28;20030;-91
2022/06/01 10:18:27;;;;;;;0.20;0.10;;;;;;;;;;4994415;28;20088;-91
2022/06/01 10:20:55;;;;;;;0.20;0.10;;;;;;;;;;4988393;28;20038;-88
2022/06/01 10:23:22;;;;;;;0.20;0.10;;;;;;;;;;4987950;28;20129;-87
2022/06/01 10:26:11;;;;;;;0.20;0.10;;;;;;;;;;4988314;28;20165;-87
2022/06/01 10:28:43;;;;;;;0.20;0.10;;;;;;;;;;4967110;28;20069;-87
2022/06/01 10:31:25;;;;;;;0.30;0.20;;;;;;;;;;4991716;28;20037;-89
2022/06/01 10:34:04;;;;;;;0.20;0.10;;;;;;;;;;4991048;28;20096;-88
2022/06/01 10:36:44;;;;;;;0.20;0.20;;;;;;;;;;4987506;28;20125;-89
2022/06/01 10:39:14;;;;;;;0.20;0.10;;;;;;;;;;5003469;28;20088;-88
2022/06/01 10:41:46;;;;;;;0.20;0.10;;;;;;;;;;4985745;28;20038;-87
2022/06/01 10:44:18;;;;;;;0.20;0.10;;;;;;;;;;5002078;28;20045;-87
2022/06/01 10:46:51;;;;;;;0.20;0.10;;;;;;;;;;4970387;28;20046;-88
2022/06/01 10:49:26;;;;;;;0.20;0.10;;;;;;;;;;4986949;28;20042;-87
2022/06/01 10:52:11;;;;;;;0.20;0.10;;;;;;;;;;4990016;28;20069;-89
2022/06/01 10:54:57;;;;;;;0.20;0.10;;;;;;;;;;4987013;28;20049;-90
2022/06/01 10:57:57;;;;;;;0.20;0.10;;;;;;;;;;4989957;28;20053;-91
2022/06/01 11:00:29;;;;;;;0.20;0.10;;;;;;;;;;4947406;28;20041;-91
2022/06/01 11:03:15;;;;;;;0.20;0.10;;;;;;;;;;4991551;28;20064;-91
2022/06/01 11:05:46;;;;;;;0.20;0.10;;;;;;;;;;4991843;28;20050;-91
2022/06/01 11:08:14;;;;;;;0.20;0.10;;;;;;;;;;4974863;28;20524;-92
2022/06/01 11:10:48;;;;;;;0.20;0.10;;;;;;;;;;4992737;28;20045;-90
2022/06/01 11:13:33;;;;;;;0.20;0.10;;;;;;;;;;5007659;28;20588;-89
2022/06/01 11:16:11;;;;;;;0.20;0.08;;;;;;;;;;4991902;28;20049;-90
2022/06/01 11:18:59;;;;;;;0.20;0.10;;;;;;;;;;4993154;28;20498;-91
2022/06/01 11:21:39;;;;;;;0.20;0.10;;;;;;;;;;4992907;28;20073;-90
2022/06/01 11:24:24;;;;;;;0.20;0.10;;;;;;;;;;4988195;28;20061;-89
2022/06/01 11:26:53;;;;;;;0.28;0.15;;;;;;;;;;4994127;28;20499;-90
2022/06/01 11:29:26;;;;;;;0.20;0.10;;;;;;;;;;4989925;28;20514;-92
2022/06/01 11:32:07;;;;;;;0.20;0.10;;;;;;;;;;4992718;28;20045;-92
2022/06/01 11:34:59;;;;;;;0.20;0.10;;;;;;;;;;4994832;28;20426;-90
2022/06/01 11:37:35;;;;;;;0.20;0.10;;;;;;;;;;5007973;28;20181;-88
2022/06/01 11:40:37;;;;;;;0.20;0.10;;;;;;;;;;4991055;28;20041;-89
2022/06/01 11:43:11;;;;;;;0.20;0.10;;;;;;;;;;4953549;28;20049;-90
2022/06/01 11:45:46;;;;;;;0.20;0.10;;;;;;;;;;4971527;28;20499;-91
2022/06/01 11:48:16;;;;;;;0.20;0.10;;;;;;;;;;5006269;28;20037;-90
2022/06/01 11:51:04;;;;;;;0.20;0.10;;;;;;;;;;4992015;28;20146;-89
2022/06/01 11:53:46;;;;;;;0.20;0.10;;;;;;;;;;4990172;28;20065;-90
2022/06/01 11:56:41;;;;;;;0.20;0.10;;;;;;;;;;4991116;28;20072;-88
2022/06/01 11:59:15;;;;;;;0.20;0.10;;;;;;;;;;5008157;28;20046;-89
2022/06/01 12:02:03;;;;;;;0.20;0.10;;;;;;;;;;4991149;28;20045;-88
2022/06/01 12:04:41;;;;;;;0.20;0.10;;;;;;;;;;4989127;28;20034;-88
2022/06/01 12:07:07;;;;;;;0.20;0.10;;;;;;;;;;4972306;28;20091;-87
2022/06/01 12:09:40;;;;;;;0.20;0.10;;;;;;;;;;4992449;28;20061;-88
2022/06/01 12:12:08;;;;;;;0.20;0.10;;;;;;;;;;4989499;28;20414;-89
2022/06/01 12:14:56;;;;;;;0.20;0.10;;;;;;;;;;4974304;28;20038;-89
2022/06/01 12:17:30;;;;;;;0.20;0.00;;;;;;;;;;4986560;28;20100;-88
2022/06/01 12:20:12;;;;;;;0.20;0.10;;;;;;;;;;4994764;28;20101;-87
2022/06/01 12:28:51;;;;;;;0.20;0.10;;;;;;;;;;5005742;28;20046;-89
2022/06/01 12:31:21;;;;;;;0.20;0.10;;;;;;;;;;4972312;28;20042;-88
2022/06/01 12:34:03;;;;;;;0.20;0.10;;;;;;;;;;4992409;28;20200;-89
2022/06/01 12:36:35;;;;;;;0.20;0.10;;;;;;;;;;5018893;28;20049;-87
2022/06/01 12:39:04;;;;;;;0.20;0.10;;;;;;;;;;4996910;28;20045;-90
2022/06/01 12:41:36;;;;;;;0.20;0.10;;;;;;;;;;4996483;28;20129;-89
2022/06/01 12:44:05;;;;;;;0.20;0.03;;;;;;;;;;4995019;28;20053;-90
2022/06/01 12:46:38;;;;;;;0.20;0.10;;;;;;;;;;4989439;28;20581;-90
2022/06/01 12:49:36;;;;;;;;;;;;;;;;;;;;;
2022/06/01 12:55:51;;;;;;;0.20;0.10;;;;;;;;;;4937867;28;20114;-90
2022/06/01 12:58:28;;;;;;;0.20;0.10;;;;;;;;;;4971393;28;20046;-90
2022/06/01 13:00:56;;;;;;;0.20;0.10;;;;;;;;;;5006939;28;20060;-89
2022/06/01 13:03:29;;;;;;;0.20;0.10;;;12.10;99.90;;;;;;4990482;28;20046;-89
2022/06/01 13:06:10;;;;;;;0.20;0.10;;;14.00;99.90;;;;;;4993225;28;20068;-89
2022/06/01 13:08:46;;;;;;;0.20;0.10;;;14.20;99.90;;;;;;4990336;28;20042;-89
2022/06/01 13:11:13;;;;;;;0.20;0.00;;;14.30;99.90;;;;;;4976849;28;20046;-87
2022/06/01 13:13:43;;;;;;;0.20;0.10;;;14.50;99.90;;;;;;5004206;28;20040;-89
2022/06/01 13:16:10;;;;;;;0.20;0.10;;;14.60;99.90;;;;;;4988807;28;21100;-88
2022/06/01 13:19:18;;;;;;;0.20;0.10;;;14.70;99.90;;;;;;4973899;28;20133;-89
2022/06/01 13:21:53;;;;;;;0.20;0.08;;;14.60;99.90;;;;;;4987938;28;20104;-88
2022/06/01 13:24:21;;;;;;;0.20;0.10;;;14.40;99.90;;;;;;4986790;28;20045;-87
2022/06/01 13:26:50;;;;;;;0.20;0.10;;;14.20;99.90;;;;;;4971277;28;20041;-89
2022/06/01 13:29:58;;;;;;;0.20;0.10;;;13.90;99.90;;;;;;4986280;28;20050;-89
2022/06/01 13:32:33;;;;;;;0.20;0.08;;;13.60;99.90;;;;;;4984651;28;20127;-88
2022/06/01 13:35:17;;;;;;;0.20;0.10;;;;;;;;;;4984655;28;20042;-90
2022/06/01 13:37:46;;;;;;;0.20;0.10;;;;;;;;;;4992003;28;20037;-89
2022/06/01 13:40:30;;;;;;;0.20;0.10;;;;;;;;;;4995531;28;20041;-91
2022/06/01 13:43:01;;;;;;;0.20;0.10;;;;;;;;;;4990984;28;20045;-89
2022/06/01 13:45:39;;;;;;;0.20;0.10;;;;;;;;;;4988384;28;20042;-89
2022/06/01 13:48:07;;;;;;;0.20;0.10;;;;;;;;;;4991299;28;20037;-88
2022/06/01 13:50:46;;;;;;;0.20;0.10;;;;;;;;;;4996458;28;20048;-89
2022/06/01 13:53:20;;;;;;;0.20;0.10;;;;;;;;;;4989986;28;20041;-89
2022/06/01 13:55:54;;;;;;;0.20;0.10;;;;;;;;;;4986713;28;20048;-89
2022/06/01 13:58:27;;;;;;;0.20;0.10;;;;;;;;;;4987175;28;20415;-89
2022/06/01 14:01:05;;;;;;;0.20;0.10;;;;;;;;;;4986542;28;20069;-89
2022/06/01 14:03:39;;;;;;;0.20;0.10;;;;;;;;;;4986993;28;20041;-90
2022/06/01 14:06:10;;;;;;;0.20;0.10;;;;;;;;;;4970655;28;20140;-90
2022/06/01 14:08:45;;;;;;;0.20;0.10;;;;;;;;;;4987333;28;20737;-87
2022/06/01 14:11:15;;;;;;;0.20;0.10;;;;;;;;;;4973063;28;20080;-88
2022/06/01 14:13:43;;;;;;;0.20;0.10;;;;;;;;;;4987134;28;20034;-89
2022/06/01 14:16:16;;;;;;;0.20;0.10;;;;;;;;;;4987827;28;20045;-88
2022/06/01 14:19:00;;;;;;;0.20;0.10;;;;;;;;;;4987221;28;20042;-88
2022/06/01 14:21:28;;;;;;;0.20;0.10;;;;;;;;;;4988132;28;20052;-89
2022/06/01 14:30:24;;;;;;;0.20;0.00;;;;;;;;;;4993342;28;20053;-89
2022/06/01 14:32:55;;;;;;;0.20;0.10;;;;;;;;;;4986519;28;20039;-89
2022/06/01 14:35:22;;;;;;;0.20;0.15;;;13.20;99.90;;;;;;4970569;28;20034;-89
2022/06/01 14:37:48;;;;;;;0.20;0.10;;;14.20;99.90;;;;;;4987772;28;20125;-88
2022/06/01 14:40:15;;;;;;;0.20;0.10;;;14.30;99.90;;;;;;4993264;28;20030;-90
2022/06/01 14:43:14;;;;;;;0.20;0.10;;;14.50;99.90;;;;;;4988988;28;20045;-88
2022/06/01 14:45:40;;;;;;;0.20;0.10;;;14.60;99.90;;;;;;4971575;28;20056;-87
2022/06/01 14:48:09;;;;;;;0.20;0.05;;;14.60;99.90;;;;;;4945008;28;20125;-88
2022/06/01 14:50:36;;;;;;;0.20;0.10;;;14.60;99.90;;;;;;4994718;28;20556;-87
2022/06/01 14:53:17;;;;;;;0.20;0.10;;;14.60;99.90;;;;;;4956508;28;20048;-88
2022/06/01 14:55:46;;;;;;;0.20;0.10;;;14.60;99.90;;;;;;4975597;28;20084;-89
2022/06/01 14:58:12;;;;;;;0.20;0.10;;;14.60;99.90;;;;;;5012338;28;21061;-89
2022/06/01 15:00:41;;;;;;;0.20;0.10;;;;;;;;;;4959878;28;20042;-88
2022/06/01 15:03:10;;;;;;;0.20;0.10;;;;;;;;;;4996619;28;20521;-87
2022/06/01 15:05:43;;;;;;;0.20;0.10;;;;;;;;;;4989308;28;20124;-89
2022/06/01 15:08:53;;;;;;;0.20;0.10;;;;;;;;;;5004988;28;20053;-88
2022/06/01 15:11:20;;;;;;;0.20;0.10;;;;;;;;;;4987852;28;20112;-88
2022/06/01 15:13:46;;;;;;;0.20;0.10;;;;;;;;;;4990925;28;20413;-88
2022/06/01 15:16:12;;;;;;;0.20;0.10;;;;;;;;;;4991380;28;20042;-89
2022/06/01 15:18:45;;;;;;;0.20;0.10;;;;;;;;;;4991129;28;20042;-88
2022/06/01 15:21:17;;;;;;;0.20;0.10;;;;;;;;;;4993244;28;21432;-88
2022/06/01 15:23:52;;;;;;;0.20;0.10;;;;;;;;;;4987795;28;20064;-89
2022/06/01 15:26:24;;;;;;;;;;;;;;;;;;4991713;28;20494;-87
2022/06/01 15:28:51;;;;;;;0.20;0.10;;;;;;;;;;4989468;28;19917;-89
2022/06/01 15:39:36;;;;;;;0.20;0.10;;;14.10;99.90;;;;;;5004626;28;20049;-91
2022/06/01 15:42:08;;;;;;;0.20;0.10;;;14.20;99.90;;;;;;4979817;28;20042;-89
2022/06/01 15:44:35;;;;;;;0.20;0.10;;;14.20;99.90;;;;;;4972978;28;20053;-89
2022/06/01 15:47:08;;;;;;;0.20;0.10;;;14.20;99.90;;;;;;4989649;28;20064;-89
2022/06/01 15:49:36;;;;;;;0.20;0.10;;;14.20;99.90;;;;;;4992337;28;20511;-88
2022/06/01 15:52:08;;;;;;;0.20;0.10;;;14.30;99.90;;;;;;4990149;28;20072;-88
2022/06/01 15:54:34;;;;;;;0.20;0.10;;;14.20;99.90;;;;;;5011360;28;20129;-89
2022/06/01 15:57:01;;;;;;;0.20;0.10;;;14.20;99.90;;;;;;4974701;28;20069;-87
2022/06/01 15:59:29;;;;;;;0.20;0.10;;;14.10;99.90;;;;;;4974525;28;20046;-89
2022/06/01 16:01:56;;;;;;;0.20;0.05;;;14.10;99.90;;;;;;4973924;28;20049;-89
2022/06/01 16:04:21;;;;;;;0.90;0.30;;;14.00;99.90;;;;;;5008428;28;20082;-86
2022/06/01 16:06:47;;;;;;;0.20;0.10;;;13.90;99.90;;;;;;4973247;28;20491;-89
2022/06/01 16:09:16;;;;;;;0.28;0.20;;;13.70;99.90;;;;;;4990128;28;20653;-88
2022/06/01 16:11:43;;;;;;;0.25;0.10;;;13.50;99.90;;;;;;4976864;28;20479;-89
2022/06/01 16:14:12;;;;;;;0.20;0.10;;;13.40;99.90;;;;;;4991089;28;20038;-87
2022/06/01 16:16:41;;;;;;;0.20;0.10;;;13.30;99.90;;;;;;4997211;28;20034;-89
2022/06/01 16:19:09;;;;;;;0.30;0.30;;;13.00;99.90;;;;;;4989603;28;20041;-90
2022/06/01 16:21:36;;;;;;;0.20;0.10;;;12.90;99.90;;;;;;4992685;28;20038;-89
2022/06/01 16:24:03;;;;;;;0.20;0.10;;;12.70;99.90;;;;;;4972713;28;20525;-88
2022/06/01 16:26:29;;;;;;;0.20;0.10;;;;;;;;;;4985255;28;20664;-90
2022/06/01 16:29:02;;;;;;;0.20;0.10;;;;;;;;;;4995809;28;20052;-89
2022/06/01 16:31:32;;;;;;;0.20;0.10;;;;;;;;;;4988652;28;20080;-88
2022/06/01 16:33:58;;;;;;;0.20;0.10;;;;;;;;;;4992256;28;20033;-87
2022/06/01 16:36:34;;;;;;;0.20;0.10;;;;;;;;;;4981297;28;20124;-89
2022/06/01 16:39:03;;;;;;;0.20;0.10;;;;;;;;;;4978128;28;20121;-90
2022/06/01 16:41:33;;;;;;;0.20;0.10;;;;;;;;;;4995273;28;20038;-87
2022/06/01 16:44:10;;;;;;;0.20;0.10;;;;;;;;;;5004213;28;20038;-88
2022/06/01 16:46:37;;;;;;;0.20;0.10;;;;;;;;;;4993877;28;20041;-88
2022/06/01 16:49:06;;;;;;;0.20;0.10;;;;;;;;;;4975664;28;20049;-89
2022/06/01 16:51:33;;;;;;;0.20;0.10;;;;;;;;;;4973865;28;20042;-90
2022/06/01 16:53:59;;;;;;;0.20;0.10;;;;;;;;;;4971154;28;20627;-89